Time;durP1;ratioP1;P1;durP2;ratioP2;P2;SDS_P1;SDS_P2;PMS_P1;PMS_P2;Temp;Humidity;BMP_temperature;BMP_pressure;BME280_temperature;BME280_humidity;BME280_pressure;Samples;Min_cycle;Max_cycle;Signal;HPM_P1;HPM_P2
2022/12/01 00:00:55;;;;;;;97.32;43.35;;;5.50;99.90;;;;;;5000149;28;20042;-46
2022/12/01 00:03:21;;;;;;;93.32;41.97;;;5.40;99.90;;;;;;5000474;28;20041;-46
2022/12/01 00:05:56;;;;;;;89.55;41.10;;;5.50;99.90;;;;;;5003420;28;20069;-46
2022/12/01 00:08:21;;;;;;;104.60;41.17;;;5.50;99.90;;;;;;4996754;28;20738;-46
2022/12/01 00:10:47;;;;;;;91.25;40.55;;;5.50;99.90;;;;;;5000987;28;20047;-47
2022/12/01 00:13:13;;;;;;;107.05;43.42;;;5.40;99.90;;;;;;5001760;28;20037;-48
2022/12/01 00:15:39;;;;;;;97.38;42.55;;;;;;;;;;4997236;28;20100;-51
2022/12/01 00:18:05;;;;;;;99.10;41.97;;;5.50;99.90;;;;;;5007600;28;20140;-45
2022/12/01 00:20:32;;;;;;;100.38;40.67;;;5.60;99.90;;;;;;5003337;28;20037;-47
2022/12/01 00:22:59;;;;;;;86.05;37.35;;;;;;;;;;5000932;28;20105;-46
2022/12/01 00:25:24;;;;;;;97.50;42.80;;;5.30;99.90;;;;;;4996983;28;20052;-50
2022/12/01 00:27:51;;;;;;;88.60;39.63;;;5.30;99.90;;;;;;5002658;28;20057;-46
2022/12/01 00:30:18;;;;;;;99.30;42.83;;;5.50;99.90;;;;;;5002066;28;20061;-51
2022/12/01 00:32:45;;;;;;;98.43;43.55;;;;;;;;;;5002898;28;20033;-46
2022/12/01 00:35:11;;;;;;;97.68;45.28;;;5.50;99.90;;;;;;4997740;28;20146;-46
2022/12/01 00:37:37;;;;;;;98.78;42.33;;;5.20;99.90;;;;;;5003751;28;20049;-50
2022/12/01 00:40:04;;;;;;;105.38;44.70;;;;;;;;;;5003321;28;20073;-49
2022/12/01 00:42:30;;;;;;;104.78;44.22;;;5.20;99.90;;;;;;5002005;28;20045;-47
2022/12/01 00:44:55;;;;;;;93.75;43.80;;;5.20;99.90;;;;;;5002932;28;20050;-47
2022/12/01 00:47:21;;;;;;;92.18;40.80;;;;;;;;;;5002303;28;20057;-45
2022/12/01 00:49:47;;;;;;;98.57;43.17;;;5.40;99.90;;;;;;5007175;28;20522;-50
2022/12/01 00:52:14;;;;;;;101.20;42.38;;;5.40;99.90;;;;;;5003473;28;20058;-49
2022/12/01 00:54:40;;;;;;;96.57;42.10;;;5.50;99.90;;;;;;5011949;28;20093;-48
2022/12/01 00:57:06;;;;;;;108.07;45.45;;;;;;;;;;5007577;28;20041;-50
2022/12/01 00:59:32;;;;;;;102.05;43.22;;;;;;;;;;5009167;28;20042;-49
2022/12/01 01:01:59;;;;;;;99.20;41.65;;;;;;;;;;5005638;28;20087;-49
2022/12/01 01:04:25;;;;;;;96.38;43.95;;;;;;;;;;5003607;28;20474;-48
2022/12/01 01:06:51;;;;;;;100.57;45.42;;;5.50;99.90;;;;;;5007553;28;20053;-46
2022/12/01 01:09:17;;;;;;;92.78;41.63;;;5.50;99.90;;;;;;5007413;28;20049;-46
2022/12/01 01:11:42;;;;;;;95.40;42.42;;;5.50;99.90;;;;;;4994171;28;20079;-47
2022/12/01 01:14:08;;;;;;;104.55;46.47;;;;;;;;;;5002766;28;20680;-45
2022/12/01 01:16:35;;;;;;;108.65;44.78;;;;;;;;;;5005069;28;20049;-48
2022/12/01 01:19:00;;;;;;;105.70;45.58;;;5.50;99.90;;;;;;5002143;28;20129;-51
2022/12/01 01:21:27;;;;;;;112.78;47.70;;;;;;;;;;5003576;28;20405;-48
2022/12/01 01:23:54;;;;;;;102.10;45.47;;;5.60;99.90;;;;;;5005202;28;20037;-46
2022/12/01 01:26:29;;;;;;;104.88;45.17;;;5.50;99.90;;;;;;5005034;28;20055;-45
2022/12/01 01:29:00;;;;;;;98.97;43.00;;;5.50;99.90;;;;;;5009636;28;20045;-48
2022/12/01 01:31:28;;;;;;;108.50;45.45;;;5.40;99.90;;;;;;5006376;28;20049;-48
2022/12/01 01:33:55;;;;;;;109.45;47.15;;;5.50;99.90;;;;;;5002852;28;20863;-49
2022/12/01 01:36:21;;;;;;;109.35;46.78;;;;;;;;;;5005173;28;20141;-46
2022/12/01 01:38:50;;;;;;;121.50;49.78;;;;;;;;;;5006274;28;20349;-45
2022/12/01 01:41:17;;;;;;;106.97;46.53;;;5.30;99.90;;;;;;5007229;28;20072;-46
2022/12/01 01:43:51;;;;;;;102.57;45.78;;;5.20;99.90;;;;;;5007419;28;20175;-51
2022/12/01 01:46:18;;;;;;;96.03;43.58;;;;;;;;;;5010244;28;20613;-46
2022/12/01 01:48:53;;;;;;;107.85;44.97;;;5.40;99.90;;;;;;5003381;28;20045;-48
2022/12/01 01:51:27;;;;;;;112.88;47.83;;;5.30;99.90;;;;;;5007281;28;20045;-49
2022/12/01 01:53:56;;;;;;;112.55;48.05;;;5.30;99.90;;;;;;5004481;28;20087;-45
2022/12/01 01:56:22;;;;;;;105.50;46.97;;;5.30;99.90;;;;;;5006749;28;20037;-46
2022/12/01 01:58:49;;;;;;;112.90;46.58;;;5.30;99.90;;;;;;5005460;28;20788;-45
2022/12/01 02:01:15;;;;;;;106.00;46.88;;;5.40;99.90;;;;;;5008388;28;20136;-49
2022/12/01 02:03:42;;;;;;;110.47;48.00;;;5.30;99.90;;;;;;5004676;28;20037;-46
2022/12/01 02:06:08;;;;;;;111.82;46.38;;;5.40;99.90;;;;;;5001945;28;20054;-45
2022/12/01 02:08:36;;;;;;;103.20;45.45;;;5.30;99.90;;;;;;5007600;28;20120;-46
2022/12/01 02:11:05;;;;;;;112.15;49.03;;;5.30;99.90;;;;;;5001283;28;20041;-49
2022/12/01 02:14:07;;;;;;;107.82;45.38;;;5.40;99.90;;;;;;5003707;28;20041;-46
2022/12/01 02:16:38;;;;;;;105.13;45.00;;;5.50;99.90;;;;;;5007243;28;20567;-47
2022/12/01 02:19:19;;;;;;;106.97;45.65;;;5.30;99.90;;;;;;5006023;28;20046;-46
2022/12/01 02:22:07;;;;;;;105.38;45.45;;;5.40;99.90;;;;;;5004733;28;20104;-48
2022/12/01 02:25:02;;;;;;;107.18;46.55;;;5.40;99.90;;;;;;5004104;28;20555;-48
2022/12/01 02:27:36;;;;;;;110.80;48.42;;;5.40;99.90;;;;;;5004325;28;20037;-50
2022/12/01 02:30:27;;;;;;;104.40;46.67;;;5.30;99.90;;;;;;5002284;28;20033;-46
2022/12/01 02:33:23;;;;;;;108.50;47.38;;;5.30;99.90;;;;;;5004486;28;20045;-47
2022/12/01 02:35:54;;;;;;;106.05;46.92;;;5.30;99.90;;;;;;5005346;28;20041;-46
2022/12/01 02:38:23;;;;;;;105.15;45.53;;;5.30;99.90;;;;;;5002358;28;20293;-45
2022/12/01 02:41:00;;;;;;;107.72;47.50;;;5.30;99.90;;;;;;5003620;28;20056;-45
2022/12/01 02:43:38;;;;;;;99.97;43.78;;;5.30;99.90;;;;;;5004384;28;20041;-47
2022/12/01 02:46:22;;;;;;;108.97;47.08;;;5.20;99.90;;;;;;5003424;28;20042;-46
2022/12/01 02:48:52;;;;;;;104.18;44.03;;;5.40;99.90;;;;;;5004036;28;20057;-46
2022/12/01 02:51:29;;;;;;;104.75;44.85;;;5.20;99.90;;;;;;5006374;28;20096;-48
2022/12/01 02:54:00;;;;;;;111.07;47.03;;;5.20;99.90;;;;;;5001707;28;20049;-45
2022/12/01 02:56:26;;;;;;;101.20;45.70;;;5.30;99.90;;;;;;5002733;28;20045;-51
2022/12/01 02:58:52;;;;;;;104.68;45.00;;;;;;;;;;5003309;28;20045;-46
2022/12/01 03:01:49;;;;;;;104.05;44.20;;;5.30;99.90;;;;;;5002968;28;20045;-45
2022/12/01 03:04:38;;;;;;;98.25;45.30;;;5.40;99.90;;;;;;5004085;28;20041;-46
2022/12/01 03:07:17;;;;;;;107.65;46.28;;;5.30;99.90;;;;;;5003249;28;20061;-45
2022/12/01 03:09:57;;;;;;;102.43;47.25;;;5.20;99.90;;;;;;5007379;28;20049;-45
2022/12/01 03:12:57;;;;;;;103.22;45.33;;;5.30;99.90;;;;;;5006851;28;20132;-46
2022/12/01 03:15:57;;;;;;;108.70;46.28;;;5.10;99.90;;;;;;5006098;28;20045;-45
2022/12/01 03:18:56;;;;;;;102.28;45.42;;;5.20;99.90;;;;;;5005496;28;20133;-45
2022/12/01 03:21:33;;;;;;;96.70;44.53;;;5.20;99.90;;;;;;5002693;28;20050;-48
2022/12/01 03:24:16;;;;;;;99.80;43.45;;;5.10;99.90;;;;;;5005063;28;20045;-50
2022/12/01 03:26:50;;;;;;;105.15;43.95;;;5.00;99.90;;;;;;5001730;28;20084;-45
2022/12/01 03:29:41;;;;;;;103.88;44.40;;;5.10;99.90;;;;;;5002546;28;20100;-47
2022/12/01 03:32:16;;;;;;;110.50;46.15;;;5.10;99.90;;;;;;5000900;28;20038;-46
2022/12/01 03:34:48;;;;;;;113.32;47.28;;;5.00;99.90;;;;;;5002697;28;20509;-47
2022/12/01 03:37:41;;;;;;;126.50;48.80;;;5.00;99.90;;;;;;5000785;28;20606;-48
2022/12/01 03:40:13;;;;;;;112.47;47.42;;;5.00;99.90;;;;;;5004664;28;20524;-50
2022/12/01 03:42:48;;;;;;;117.80;47.60;;;5.10;99.90;;;;;;5002634;28;20068;-51
2022/12/01 03:45:19;;;;;;;106.72;45.78;;;5.10;99.90;;;;;;5006017;28;20958;-50
2022/12/01 03:47:45;;;;;;;106.10;46.00;;;5.20;99.90;;;;;;5004013;28;20091;-46
2022/12/01 03:50:12;;;;;;;104.22;45.42;;;5.20;99.90;;;;;;5001846;28;20057;-45
2022/12/01 03:53:24;;;;;;;92.80;41.95;;;5.10;99.90;;;;;;5001665;28;20453;-46
2022/12/01 03:55:58;;;;;;;105.18;42.95;;;5.20;99.90;;;;;;5002427;28;20117;-49
2022/12/01 03:58:33;;;;;;;92.57;41.97;;;5.10;99.90;;;;;;5002858;28;20052;-44
2022/12/01 04:01:01;;;;;;;99.95;42.78;;;5.00;99.90;;;;;;5000131;28;20520;-45
2022/12/01 04:03:27;;;;;;;100.05;41.45;;;5.00;99.90;;;;;;5002146;28;20392;-44
2022/12/01 04:05:53;;;;;;;106.90;44.30;;;;;;;;;;5001991;28;20327;-46
2022/12/01 04:08:19;;;;;;;100.28;43.67;;;5.00;99.90;;;;;;5000666;28;20136;-47
2022/12/01 04:10:45;;;;;;;104.07;45.08;;;5.10;99.90;;;;;;5004939;28;20135;-47
2022/12/01 04:13:21;;;;;;;109.53;43.67;;;5.10;99.90;;;;;;5000193;28;20575;-46
2022/12/01 04:15:48;;;;;;;100.55;43.38;;;5.10;99.90;;;;;;5005728;28;20042;-45
2022/12/01 04:18:13;;;;;;;103.72;43.05;;;5.10;99.90;;;;;;5016933;28;20041;-46
2022/12/01 04:20:39;;;;;;;104.70;42.97;;;5.20;99.90;;;;;;5002799;28;20583;-48
2022/12/01 04:23:05;;;;;;;86.88;40.60;;;5.10;99.90;;;;;;5000460;28;20507;-45
2022/12/01 04:25:30;;;;;;;95.03;42.80;;;5.00;99.90;;;;;;5002658;28;20463;-45
2022/12/01 04:27:56;;;;;;;112.72;46.00;;;;;;;;;;5003172;28;20053;-48
2022/12/01 04:30:22;;;;;;;104.88;44.47;;;5.10;99.90;;;;;;5006031;28;20117;-50
2022/12/01 04:32:48;;;;;;;114.57;47.42;;;5.10;99.90;;;;;;5011143;28;20414;-45
2022/12/01 04:35:14;;;;;;;98.38;44.13;;;;;;;;;;5012763;28;20112;-48
2022/12/01 04:37:39;;;;;;;100.95;45.45;;;5.00;99.90;;;;;;5008028;28;20041;-46
2022/12/01 04:40:06;;;;;;;109.10;45.75;;;5.20;99.90;;;;;;5009549;28;20042;-47
2022/12/01 04:42:32;;;;;;;108.20;46.10;;;5.20;99.90;;;;;;5009434;28;20103;-46
2022/12/01 04:44:58;;;;;;;99.72;45.25;;;5.00;99.90;;;;;;5007233;28;20583;-47
2022/12/01 04:47:24;;;;;;;110.80;45.85;;;;;;;;;;5008114;28;20030;-45
2022/12/01 04:49:50;;;;;;;107.68;45.90;;;;;;;;;;5005376;28;20414;-48
2022/12/01 04:52:16;;;;;;;114.97;46.55;;;;;;;;;;5004912;28;20049;-49
2022/12/01 04:54:42;;;;;;;121.00;47.85;;;;;;;;;;5004381;28;20410;-47
2022/12/01 04:57:08;;;;;;;102.45;42.38;;;;;;;;;;5007125;28;20451;-49
2022/12/01 04:59:34;;;;;;;94.18;42.38;;;5.10;99.90;;;;;;5002775;28;20068;-46
2022/12/01 05:02:01;;;;;;;110.00;46.17;;;5.00;99.90;;;;;;5010325;28;20128;-46
2022/12/01 05:04:27;;;;;;;106.85;45.88;;;5.10;99.90;;;;;;5001296;28;20454;-49
2022/12/01 05:06:54;;;;;;;103.65;46.15;;;5.00;99.90;;;;;;5005281;28;20037;-45
2022/12/01 05:09:20;;;;;;;96.45;45.10;;;5.10;99.90;;;;;;5006305;28;20046;-47
2022/12/01 05:11:45;;;;;;;96.15;43.47;;;5.10;99.90;;;;;;5006287;28;20041;-45
2022/12/01 05:14:11;;;;;;;113.57;46.80;;;5.10;99.90;;;;;;5009234;28;20049;-48
2022/12/01 05:16:37;;;;;;;109.88;44.88;;;5.00;99.90;;;;;;5002675;28;20045;-47
2022/12/01 05:21:50;;;;;;;112.85;45.10;;;5.10;99.90;;;;;;5001119;28;20108;-46
2022/12/01 05:24:17;;;;;;;117.85;46.47;;;5.00;99.90;;;;;;5008424;28;20191;-46
2022/12/01 05:26:43;;;;;;;117.38;48.92;;;5.00;99.90;;;;;;5004508;28;20100;-45
2022/12/01 05:29:10;;;;;;;116.47;47.05;;;5.10;99.90;;;;;;5007527;28;20063;-46
2022/12/01 05:31:36;;;;;;;111.57;44.28;;;4.90;99.90;;;;;;5004162;28;20033;-47
2022/12/01 05:34:02;;;;;;;106.15;45.10;;;;;;;;;;5007452;28;20458;-50
2022/12/01 05:36:28;;;;;;;110.17;44.73;;;4.90;99.90;;;;;;5005582;28;20264;-48
2022/12/01 05:38:54;;;;;;;102.22;42.17;;;4.80;99.90;;;;;;5006194;28;20139;-50
2022/12/01 05:41:20;;;;;;;106.53;42.88;;;4.70;99.90;;;;;;5004350;28;20092;-50
2022/12/01 05:43:46;;;;;;;103.25;42.20;;;;;;;;;;5007169;28;20145;-45
2022/12/01 05:46:12;;;;;;;104.97;42.65;;;4.50;99.90;;;;;;5010323;28;20049;-47
2022/12/01 05:48:38;;;;;;;99.28;40.72;;;;;;;;;;5005354;28;20045;-46
2022/12/01 05:51:12;;;;;;;107.35;42.80;;;4.20;99.90;;;;;;5004399;28;20067;-45
2022/12/01 05:53:38;;;;;;;94.03;41.67;;;;;;;;;;5008491;28;20581;-47
2022/12/01 05:56:05;;;;;;;110.18;41.70;;;4.10;99.90;;;;;;5002182;28;20049;-47
2022/12/01 05:58:31;;;;;;;94.50;39.00;;;;;;;;;;5005144;28;20040;-49
2022/12/01 06:00:57;;;;;;;94.00;39.63;;;;;;;;;;5003263;28;20289;-45
2022/12/01 06:03:24;;;;;;;134.38;41.13;;;;;;;;;;5004686;28;20450;-46
2022/12/01 06:05:50;;;;;;;114.75;37.65;;;;;;;;;;5003921;28;20597;-49
2022/12/01 06:08:16;;;;;;;100.13;41.03;;;;;;;;;;5001794;28;20049;-47
2022/12/01 06:10:45;;;;;;;112.80;40.35;;;3.40;99.90;;;;;;4997570;28;20057;-47
2022/12/01 06:13:11;;;;;;;91.57;38.25;;;;;;;;;;5005786;28;20134;-48
2022/12/01 06:15:37;;;;;;;200.43;41.13;;;;;;;;;;5008500;28;20042;-47
2022/12/01 06:18:03;;;;;;;149.88;41.35;;;;;;;;;;5004114;28;20053;-44
2022/12/01 06:20:29;;;;;;;107.35;39.17;;;;;;;;;;5002287;28;20052;-47
2022/12/01 06:22:55;;;;;;;95.22;37.00;;;;;;;;;;5002915;28;20577;-47
2022/12/01 06:25:21;;;;;;;97.82;38.40;;;;;;;;;;5004276;28;20457;-45
2022/12/01 06:27:48;;;;;;;93.78;37.70;;;;;;;;;;5011288;28;20056;-50
2022/12/01 06:30:14;;;;;;;87.28;36.55;;;;;;;;;;5001470;28;20060;-48
2022/12/01 06:32:40;;;;;;;92.22;37.47;;;;;;;;;;5002096;28;20503;-46
2022/12/01 06:35:06;;;;;;;232.98;36.38;;;2.90;99.90;;;;;;4999240;28;20485;-45
2022/12/01 06:37:32;;;;;;;107.20;35.92;;;;;;;;;;4999609;28;20049;-49
2022/12/01 06:39:58;;;;;;;143.68;31.42;;;;;;;;;;5002744;28;20133;-47
2022/12/01 06:42:24;;;;;;;180.30;38.00;;;;;;;;;;5005151;28;20077;-47
2022/12/01 06:44:50;;;;;;;415.98;41.20;;;;;;;;;;5005202;28;20565;-46
2022/12/01 06:47:17;;;;;;;246.05;35.60;;;;;;;;;;5003505;28;20041;-45
2022/12/01 06:49:43;;;;;;;101.25;32.92;;;;;;;;;;5008676;28;20137;-47
2022/12/01 06:52:09;;;;;;;147.13;30.85;;;2.50;99.90;;;;;;5002696;28;20085;-46
2022/12/01 06:54:36;;;;;;;67.30;29.60;;;;;;;;;;5005563;28;20049;-50
2022/12/01 06:57:02;;;;;;;61.17;27.15;;;;;;;;;;5011196;28;20053;-49
2022/12/01 06:59:28;;;;;;;59.05;27.20;;;;;;;;;;5001620;28;20131;-47
2022/12/01 07:01:56;;;;;;;58.03;26.13;;;;;;;;;;5003164;28;20045;-45
2022/12/01 07:04:22;;;;;;;52.67;24.30;;;;;;;;;;5002592;28;20042;-52
2022/12/01 07:06:48;;;;;;;62.50;26.35;;;;;;;;;;5005397;28;20155;-59
2022/12/01 07:09:14;;;;;;;62.30;26.45;;;2.20;99.90;;;;;;5003353;28;20041;-58
2022/12/01 07:11:40;;;;;;;68.57;25.88;;;;;;;;;;5008040;28;20056;-59
2022/12/01 07:14:06;;;;;;;106.13;24.73;;;;;;;;;;5004237;28;20041;-59
2022/12/01 07:16:32;;;;;;;165.35;25.30;;;;;;;;;;5004873;28;20115;-59
2022/12/01 07:18:58;;;;;;;63.10;24.05;;;;;;;;;;5006615;28;20041;-59
2022/12/01 07:21:24;;;;;;;66.80;24.08;;;;;;;;;;5002656;28;20053;-59
2022/12/01 07:23:51;;;;;;;44.25;22.75;;;;;;;;;;5003912;28;20510;-59
2022/12/01 07:26:17;;;;;;;55.22;23.88;;;1.80;99.90;;;;;;5004082;28;20076;-59
2022/12/01 07:28:43;;;;;;;71.07;23.00;;;;;;;;;;5005845;28;20068;-59
2022/12/01 07:31:12;;;;;;;74.30;20.23;;;1.90;99.90;;;;;;5005860;28;21788;-58
2022/12/01 07:33:38;;;;;;;34.20;17.40;;;;;;;;;;5007170;28;20132;-58
2022/12/01 07:36:05;;;;;;;31.10;17.30;;;1.90;99.90;;;;;;5006409;28;20591;-59
2022/12/01 07:38:32;;;;;;;35.28;17.88;;;1.90;99.90;;;;;;5000728;28;20038;-59
2022/12/01 07:41:06;;;;;;;33.55;17.17;;;2.00;99.90;;;;;;5005803;28;20042;-59
2022/12/01 07:43:33;;;;;;;26.77;15.95;;;;;;;;;;5000236;28;20124;-59
2022/12/01 07:46:19;;;;;;;27.98;15.48;;;1.60;99.90;;;;;;5005924;28;20045;-59
2022/12/01 07:48:46;;;;;;;24.98;15.15;;;;;;;;;;5001648;28;20113;-59
2022/12/01 07:51:16;;;;;;;23.48;15.07;;;1.60;99.90;;;;;;4997941;28;20053;-59
2022/12/01 07:53:46;;;;;;;31.70;15.80;;;1.80;99.90;;;;;;5004933;28;20038;-58
2022/12/01 07:56:12;;;;;;;33.13;16.98;;;;;;;;;;5004700;28;20446;-59
2022/12/01 07:58:39;;;;;;;33.03;17.20;;;;;;;;;;5001371;28;20871;-59
2022/12/01 08:01:16;;;;;;;32.42;16.23;;;1.70;99.90;;;;;;5002565;28;20437;-59
2022/12/01 08:03:42;;;;;;;34.75;16.85;;;;;;;;;;5009607;28;20033;-59
2022/12/01 08:06:09;;;;;;;29.42;16.10;;;1.90;99.90;;;;;;5011327;28;20429;-59
2022/12/01 08:08:37;;;;;;;32.17;16.80;;;1.90;99.90;;;;;;5007723;28;20576;-59
2022/12/01 08:11:11;;;;;;;29.98;16.88;;;2.00;99.90;;;;;;5004059;28;20685;-59
2022/12/01 08:13:38;;;;;;;28.65;15.85;;;2.10;99.90;;;;;;5001974;28;20038;-59
2022/12/01 08:16:05;;;;;;;34.03;16.63;;;2.20;99.90;;;;;;5007261;28;20044;-59
2022/12/01 08:18:34;;;;;;;37.33;17.05;;;2.20;99.90;;;;;;5006069;28;20150;-59
2022/12/01 08:21:00;;;;;;;32.40;16.17;;;;;;;;;;5011375;28;20060;-59
2022/12/01 08:23:26;;;;;;;29.73;15.57;;;;;;;;;;5009124;28;20041;-58
2022/12/01 08:25:52;;;;;;;27.30;15.57;;;;;;;;;;5010071;28;20045;-59
2022/12/01 08:28:19;;;;;;;30.42;15.27;;;2.60;99.90;;;;;;5002336;28;20038;-58
2022/12/01 08:30:45;;;;;;;27.15;15.18;;;;;;;;;;5007591;28;20116;-59
2022/12/01 08:33:11;;;;;;;33.15;16.25;;;;;;;;;;5014016;28;20132;-59
2022/12/01 08:35:38;;;;;;;31.77;16.42;;;;;;;;;;5006779;28;20037;-59
2022/12/01 08:38:04;;;;;;;27.27;15.93;;;;;;;;;;5009263;28;20120;-58
2022/12/01 08:40:29;;;;;;;32.25;17.35;;;3.40;99.90;;;;;;5008509;28;20312;-59
2022/12/01 08:42:55;;;;;;;36.58;18.13;;;3.60;99.90;;;;;;5010463;28;20055;-59
2022/12/01 08:45:22;;;;;;;39.22;19.23;;;3.90;99.90;;;;;;5008388;28;20049;-59
2022/12/01 08:47:48;;;;;;;33.17;19.15;;;4.20;99.90;;;;;;5007416;28;20414;-58
2022/12/01 08:50:14;;;;;;;34.63;19.85;;;5.00;99.90;;;;;;5005866;28;20517;-59
2022/12/01 08:52:40;;;;;;;31.40;17.90;;;5.40;99.90;;;;;;5008494;28;20037;-59
2022/12/01 08:55:06;;;;;;;27.58;17.92;;;6.30;99.90;;;;;;5006790;28;20843;-59
2022/12/01 08:57:32;;;;;;;28.90;16.58;;;6.50;99.90;;;;;;5007311;28;20048;-59
2022/12/01 08:59:58;;;;;;;26.45;16.45;;;6.70;99.90;;;;;;5006903;28;20029;-59
2022/12/01 09:02:25;;;;;;;24.35;15.10;;;8.20;99.90;;;;;;5008796;28;20136;-58
2022/12/01 09:04:51;;;;;;;26.45;15.52;;;6.30;99.90;;;;;;5011330;28;20383;-58
2022/12/01 09:07:18;;;;;;;25.02;16.40;;;6.20;99.90;;;;;;5008547;28;20045;-59
2022/12/01 09:09:44;;;;;;;28.65;17.27;;;6.30;99.90;;;;;;5006662;28;20045;-59
2022/12/01 09:12:11;;;;;;;31.55;17.38;;;6.20;99.90;;;;;;5008877;28;20053;-58
2022/12/01 09:14:39;;;;;;;29.60;16.77;;;7.30;99.90;;;;;;5000103;28;20571;-59
2022/12/01 09:17:05;;;;;;;28.92;16.75;;;6.20;99.90;;;;;;5005755;28;20053;-58
2022/12/01 09:19:31;;;;;;;24.55;16.38;;;6.30;99.90;;;;;;5004984;28;20041;-59
2022/12/01 09:21:57;;;;;;;27.48;16.10;;;6.30;99.90;;;;;;5006735;28;20038;-58
2022/12/01 09:24:23;;;;;;;25.73;15.45;;;6.40;99.90;;;;;;5003214;28;20104;-61
2022/12/01 09:26:49;;;;;;;28.42;16.92;;;7.30;99.90;;;;;;5001975;28;20037;-59
2022/12/01 09:29:16;;;;;;;26.30;17.00;;;6.60;99.90;;;;;;5004244;28;20073;-58
2022/12/01 09:31:42;;;;;;;26.58;18.55;;;7.50;99.90;;;;;;5001908;28;20408;-59
2022/12/01 09:34:12;;;;;;;23.05;14.57;;;6.10;99.90;;;;;;5007399;28;20136;-59
2022/12/01 09:36:38;;;;;;;26.33;16.70;;;5.30;99.90;;;;;;5002069;28;20160;-59
2022/12/01 09:39:05;;;;;;;24.55;15.48;;;6.10;99.90;;;;;;5004631;28;20053;-58
2022/12/01 09:41:38;;;;;;;20.08;13.85;;;7.50;99.90;;;;;;5005619;28;20966;-59
2022/12/01 09:44:13;;;;;;;23.90;14.55;;;7.00;99.90;;;;;;5001740;28;20176;-58
2022/12/01 09:46:56;;;;;;;22.42;13.73;;;6.60;99.90;;;;;;5005367;28;20513;-58
2022/12/01 09:49:43;;;;;;;19.25;13.35;;;7.20;99.90;;;;;;5000951;28;20129;-59
2022/12/01 09:52:16;;;;;;;21.35;13.52;;;7.60;99.90;;;;;;4999878;28;20482;-59
2022/12/01 09:54:41;;;;;;;20.95;13.70;;;9.10;99.90;;;;;;5004495;28;20041;-59
2022/12/01 09:57:34;;;;;;;20.42;13.88;;;8.70;99.90;;;;;;5002793;28;20419;-58
2022/12/01 10:00:04;;;;;;;19.10;12.80;;;9.10;99.90;;;;;;5007627;28;20045;-58
2022/12/01 10:02:54;;;;;;;20.50;13.82;;;9.30;99.90;;;;;;5001234;28;20125;-58
2022/12/01 10:05:24;;;;;;;22.83;13.50;;;10.30;99.90;;;;;;5001434;28;20544;-59
2022/12/01 10:08:00;;;;;;;22.73;13.55;;;11.50;99.90;;;;;;4998177;28;20073;-58
2022/12/01 10:10:46;;;;;;;22.55;13.80;;;9.50;99.90;;;;;;5000955;28;20059;-59
2022/12/01 10:13:27;;;;;;;20.13;12.60;;;8.80;99.90;;;;;;5001562;28;21035;-58
2022/12/01 10:15:52;;;;;;;24.08;14.57;;;8.40;99.90;;;;;;5008573;28;21051;-59
2022/12/01 10:18:43;;;;;;;23.08;13.70;;;8.10;99.90;;;;;;5001052;28;20076;-58
2022/12/01 10:21:12;;;;;;;21.38;13.13;;;7.70;99.90;;;;;;5002552;28;21276;-59
2022/12/01 10:23:58;;;;;;;20.25;13.25;;;7.60;99.90;;;;;;5000715;28;20517;-59
2022/12/01 10:26:34;;;;;;;22.70;13.38;;;7.20;99.90;;;;;;5002328;28;20041;-58
2022/12/01 10:29:11;;;;;;;22.55;14.05;;;8.10;99.90;;;;;;4999893;28;20119;-58
2022/12/01 10:31:53;;;;;;;26.05;15.55;;;6.80;99.90;;;;;;5006736;28;20046;-59
2022/12/01 10:34:30;;;;;;;24.08;15.20;;;7.00;99.90;;;;;;5005277;28;20085;-58
2022/12/01 10:36:57;;;;;;;24.70;16.85;;;7.00;99.90;;;;;;5005627;28;20379;-59
2022/12/01 10:39:34;;;;;;;22.00;16.42;;;9.10;99.90;;;;;;5001591;28;20563;-58
2022/12/01 10:42:03;;;;;;;27.70;17.08;;;7.00;99.90;;;;;;5004231;28;20576;-58
2022/12/01 10:44:29;;;;;;;31.60;16.00;;;7.00;99.90;;;;;;5005802;28;20550;-58
2022/12/01 10:46:56;;;;;;;23.40;16.48;;;7.00;99.90;;;;;;5000363;28;20037;-58
2022/12/01 10:49:38;;;;;;;26.45;15.45;;;8.70;99.90;;;;;;5001908;28;20133;-58
2022/12/01 10:52:05;;;;;;;28.55;17.20;;;7.00;99.90;;;;;;5007275;28;20498;-59
2022/12/01 10:54:39;;;;;;;29.38;17.75;;;7.20;99.90;;;;;;5000298;28;20038;-59
2022/12/01 10:57:13;;;;;;;26.77;17.25;;;7.20;99.90;;;;;;5005474;28;20041;-59
2022/12/01 10:59:56;;;;;;;27.00;17.60;;;7.30;99.90;;;;;;5004648;28;20527;-60
2022/12/01 11:02:24;;;;;;;25.92;17.80;;;7.30;99.90;;;;;;5007865;28;20057;-58
2022/12/01 11:04:54;;;;;;;23.30;13.45;;;7.30;99.90;;;;;;5009642;28;20080;-59
2022/12/01 11:07:30;;;;;;;30.63;17.67;;;7.30;99.90;;;;;;5000198;28;20046;-58
2022/12/01 11:10:13;;;;;;;25.63;16.33;;;7.30;99.90;;;;;;5003362;28;20048;-58
2022/12/01 11:12:40;;;;;;;25.40;15.68;;;7.20;99.90;;;;;;5006269;28;20510;-59
2022/12/01 11:15:06;;;;;;;23.58;16.77;;;7.40;99.90;;;;;;5001908;28;20135;-58
2022/12/01 11:17:41;;;;;;;26.95;16.02;;;7.30;99.90;;;;;;5002147;28;20579;-58
2022/12/01 11:20:29;;;;;;;27.23;16.60;;;7.40;99.90;;;;;;5004335;28;20123;-59
2022/12/01 11:23:14;;;;;;;22.58;14.68;;;7.20;99.90;;;;;;5002647;28;20321;-58
2022/12/01 11:25:40;;;;;;;22.55;14.57;;;7.30;99.90;;;;;;5000520;28;20048;-59
2022/12/01 11:28:16;;;;;;;21.40;14.80;;;7.30;99.90;;;;;;5000637;28;20042;-58
2022/12/01 11:30:42;;;;;;;23.20;15.30;;;8.00;99.90;;;;;;5003268;28;20701;-58
2022/12/01 11:33:14;;;;;;;18.10;13.02;;;7.50;99.90;;;;;;5003637;28;21127;-58
2022/12/01 11:35:46;;;;;;;23.17;14.90;;;7.50;99.90;;;;;;5004319;28;20045;-58
2022/12/01 11:38:18;;;;;;;;;;;7.60;99.90;;;;;;5002304;28;20065;-58
2022/12/01 11:40:45;;;;;;;22.25;14.75;;;7.50;99.90;;;;;;5000972;28;19932;-58
2022/12/01 11:43:31;;;;;;;20.83;14.27;;;7.40;99.90;;;;;;5002958;28;20054;-58
2022/12/01 11:46:01;;;;;;;23.60;15.40;;;7.60;99.90;;;;;;4999435;28;20080;-58
2022/12/01 11:48:29;;;;;;;22.67;15.07;;;7.50;99.90;;;;;;4999773;28;20042;-58
2022/12/01 11:51:06;;;;;;;27.55;15.95;;;7.50;99.90;;;;;;5001832;28;20160;-58
2022/12/01 11:53:42;;;;;;;28.95;16.35;;;7.60;99.90;;;;;;5000778;28;20406;-58
2022/12/01 11:56:29;;;;;;;23.45;16.02;;;7.50;99.90;;;;;;5004216;28;20490;-58
2022/12/01 11:59:09;;;;;;;26.88;18.33;;;7.70;99.90;;;;;;5007231;28;20073;-58
2022/12/01 12:01:38;;;;;;;26.10;16.95;;;7.80;99.90;;;;;;5006433;28;20887;-58
2022/12/01 12:04:31;;;;;;;27.20;18.67;;;8.20;99.90;;;;;;5005181;28;20049;-59
2022/12/01 12:07:30;;;;;;;24.90;17.17;;;7.90;99.90;;;;;;5002220;28;20169;-58
2022/12/01 12:10:21;;;;;;;28.52;18.38;;;7.60;99.90;;;;;;5000917;28;20462;-58
2022/12/01 12:13:14;;;;;;;28.55;17.98;;;7.40;99.90;;;;;;4997894;28;20312;-58
2022/12/01 12:15:42;;;;;;;28.23;18.25;;;7.40;99.90;;;;;;5003452;28;20095;-59
2022/12/01 12:18:42;;;;;;;26.27;18.35;;;7.40;99.90;;;;;;5003296;28;20410;-58
2022/12/01 12:21:16;;;;;;;28.52;18.67;;;7.20;99.90;;;;;;5000353;28;20577;-58
2022/12/01 12:24:15;;;;;;;31.20;18.38;;;7.20;99.90;;;;;;4996009;28;21872;-58
2022/12/01 12:27:05;;;;;;;31.75;19.77;;;7.10;99.90;;;;;;5001933;28;20247;-59
2022/12/01 12:29:37;;;;;;;29.95;19.48;;;7.10;99.90;;;;;;5000188;28;20042;-59
2022/12/01 12:32:22;;;;;;;28.48;19.75;;;7.50;99.90;;;;;;5006301;28;20239;-59
2022/12/01 12:35:04;;;;;;;27.75;19.20;;;7.20;99.90;;;;;;5005044;28;20599;-58
2022/12/01 12:37:39;;;;;;;;;;;7.60;99.90;;;;;;4996883;28;20046;-58
2022/12/01 12:40:34;;;;;;;27.75;17.73;;;6.20;99.90;;;;;;5000102;28;20378;-58
2022/12/01 12:43:14;;;;;;;30.52;18.77;;;7.50;99.90;;;;;;4999290;28;20266;-58
2022/12/01 12:45:58;;;;;;;33.17;19.00;;;7.40;99.90;;;;;;5001950;28;20045;-58
2022/12/01 12:48:41;;;;;;;33.53;20.83;;;7.40;99.90;;;;;;5004460;28;20038;-58
2022/12/01 12:51:29;;;;;;;29.88;19.00;;;7.60;99.90;;;;;;5004595;28;20049;-59
2022/12/01 12:54:11;;;;;;;30.80;20.60;;;7.50;99.90;;;;;;5003386;28;20042;-59
2022/12/01 12:56:39;;;;;;;32.63;20.83;;;8.20;99.90;;;;;;5005936;28;20053;-58
2022/12/01 12:59:17;;;;;;;36.30;23.00;;;7.40;99.90;;;;;;5010132;28;20041;-56
2022/12/01 13:01:51;;;;;;;33.20;21.67;;;7.20;99.90;;;;;;5006735;28;20049;-58
2022/12/01 13:04:43;;;;;;;32.88;20.98;;;7.20;99.90;;;;;;5005591;28;20053;-58
2022/12/01 13:07:27;;;;;;;31.17;21.05;;;7.20;99.90;;;;;;5006966;28;20041;-58
2022/12/01 13:10:08;;;;;;;30.90;20.42;;;7.00;99.90;;;;;;5006490;28;20930;-58
2022/12/01 13:12:42;;;;;;;32.30;21.55;;;7.00;99.90;;;;;;5011165;28;20287;-59
2022/12/01 13:15:19;;;;;;;38.58;21.95;;;7.00;99.90;;;;;;5006026;28;20045;-58
2022/12/01 13:18:38;;;;;;;34.17;22.38;;;7.10;99.90;;;;;;5001885;28;20120;-58
2022/12/01 13:21:04;;;;;;;40.75;23.63;;;7.10;99.90;;;;;;4967961;28;20084;-59